sensor_id;sensor_type;location;lat;lon;timestamp;P1;durP1;ratioP1;P2;durP2;ratioP2
17636;SDS011;8937;51.236;6.794;2022-08-21T00:06:49;3.90;;;2.73;;
17636;SDS011;8937;51.236;6.794;2022-08-21T00:15:11;3.97;;;2.75;;
17636;SDS011;8937;51.236;6.794;2022-08-21T00:23:34;4.32;;;2.75;;
17636;SDS011;8937;51.236;6.794;2022-08-21T00:31:56;5.18;;;3.30;;
17636;SDS011;8937;51.236;6.794;2022-08-21T00:40:21;3.57;;;2.70;;
17636;SDS011;8937;51.236;6.794;2022-08-21T00:48:43;4.70;;;3.13;;
17636;SDS011;8937;51.236;6.794;2022-08-21T00:57:07;5.18;;;3.20;;
17636;SDS011;8937;51.236;6.794;2022-08-21T01:05:30;3.27;;;2.97;;
17636;SDS011;8937;51.236;6.794;2022-08-21T01:13:53;3.93;;;3.17;;
17636;SDS011;8937;51.236;6.794;2022-08-21T01:22:16;6.10;;;3.00;;
17636;SDS011;8937;51.236;6.794;2022-08-21T01:30:37;3.97;;;3.20;;
17636;SDS011;8937;51.236;6.794;2022-08-21T01:39:01;3.43;;;3.13;;
17636;SDS011;8937;51.236;6.794;2022-08-21T01:47:23;5.47;;;3.63;;
17636;SDS011;8937;51.236;6.794;2022-08-21T01:55:46;4.13;;;3.70;;
17636;SDS011;8937;51.236;6.794;2022-08-21T02:04:08;5.57;;;3.97;;
17636;SDS011;8937;51.236;6.794;2022-08-21T02:12:31;6.47;;;4.07;;
17636;SDS011;8937;51.236;6.794;2022-08-21T02:20:52;5.83;;;4.17;;
17636;SDS011;8937;51.236;6.794;2022-08-21T02:29:15;5.77;;;4.10;;
17636;SDS011;8937;51.236;6.794;2022-08-21T02:37:42;4.10;;;3.73;;
17636;SDS011;8937;51.236;6.794;2022-08-21T02:46:06;4.33;;;3.90;;
17636;SDS011;8937;51.236;6.794;2022-08-21T02:54:28;6.37;;;4.10;;
17636;SDS011;8937;51.236;6.794;2022-08-21T03:02:50;6.33;;;4.33;;
17636;SDS011;8937;51.236;6.794;2022-08-21T03:11:13;5.50;;;4.20;;
17636;SDS011;8937;51.236;6.794;2022-08-21T03:19:36;3.80;;;3.33;;
17636;SDS011;8937;51.236;6.794;2022-08-21T03:27:58;4.57;;;4.10;;
17636;SDS011;8937;51.236;6.794;2022-08-21T03:36:21;4.57;;;4.10;;
17636;SDS011;8937;51.236;6.794;2022-08-21T03:44:42;7.90;;;4.57;;
17636;SDS011;8937;51.236;6.794;2022-08-21T03:53:05;5.00;;;4.50;;
17636;SDS011;8937;51.236;6.794;2022-08-21T04:01:26;4.73;;;4.20;;
17636;SDS011;8937;51.236;6.794;2022-08-21T04:09:50;4.57;;;4.10;;
17636;SDS011;8937;51.236;6.794;2022-08-21T04:18:11;6.27;;;4.33;;
17636;SDS011;8937;51.236;6.794;2022-08-21T04:26:34;4.97;;;4.43;;
17636;SDS011;8937;51.236;6.794;2022-08-21T04:34:59;4.50;;;4.10;;
17636;SDS011;8937;51.236;6.794;2022-08-21T04:43:22;5.53;;;4.73;;
17636;SDS011;8937;51.236;6.794;2022-08-21T04:51:44;5.47;;;4.37;;
17636;SDS011;8937;51.236;6.794;2022-08-21T05:00:07;8.53;;;4.57;;
17636;SDS011;8937;51.236;6.794;2022-08-21T05:08:30;5.40;;;4.37;;
17636;SDS011;8937;51.236;6.794;2022-08-21T05:16:53;5.07;;;4.57;;
17636;SDS011;8937;51.236;6.794;2022-08-21T05:25:15;6.70;;;4.63;;
17636;SDS011;8937;51.236;6.794;2022-08-21T05:33:38;5.40;;;4.50;;
17636;SDS011;8937;51.236;6.794;2022-08-21T05:41:59;5.90;;;4.73;;
17636;SDS011;8937;51.236;6.794;2022-08-21T05:50:22;6.93;;;4.90;;
17636;SDS011;8937;51.236;6.794;2022-08-21T05:58:44;13.93;;;5.07;;
17636;SDS011;8937;51.236;6.794;2022-08-21T06:07:06;6.00;;;4.27;;
17636;SDS011;8937;51.236;6.794;2022-08-21T06:15:28;8.10;;;4.73;;
17636;SDS011;8937;51.236;6.794;2022-08-21T06:23:51;5.73;;;4.70;;
17636;SDS011;8937;51.236;6.794;2022-08-21T06:32:12;5.53;;;3.73;;
17636;SDS011;8937;51.236;6.794;2022-08-21T06:40:35;4.70;;;2.70;;
17636;SDS011;8937;51.236;6.794;2022-08-21T06:48:57;2.93;;;2.63;;
17636;SDS011;8937;51.236;6.794;2022-08-21T06:57:20;3.87;;;2.40;;
17636;SDS011;8937;51.236;6.794;2022-08-21T07:05:41;4.53;;;2.70;;
17636;SDS011;8937;51.236;6.794;2022-08-21T07:14:04;2.83;;;2.50;;
17636;SDS011;8937;51.236;6.794;2022-08-21T07:22:26;2.37;;;2.17;;
17636;SDS011;8937;51.236;6.794;2022-08-21T07:30:51;4.17;;;2.20;;
17636;SDS011;8937;51.236;6.794;2022-08-21T07:39:12;7.37;;;2.30;;
17636;SDS011;8937;51.236;6.794;2022-08-21T07:47:35;3.33;;;1.63;;
17636;SDS011;8937;51.236;6.794;2022-08-21T07:55:57;4.72;;;1.60;;
17636;SDS011;8937;51.236;6.794;2022-08-21T08:04:19;4.47;;;1.40;;
17636;SDS011;8937;51.236;6.794;2022-08-21T08:12:42;3.83;;;1.48;;
17636;SDS011;8937;51.236;6.794;2022-08-21T08:21:05;4.25;;;1.30;;
17636;SDS011;8937;51.236;6.794;2022-08-21T08:29:26;3.45;;;1.40;;
17636;SDS011;8937;51.236;6.794;2022-08-21T08:37:49;2.75;;;1.30;;
17636;SDS011;8937;51.236;6.794;2022-08-21T08:46:12;3.30;;;1.30;;
17636;SDS011;8937;51.236;6.794;2022-08-21T08:54:37;2.65;;;1.17;;
17636;SDS011;8937;51.236;6.794;2022-08-21T09:03:01;1.40;;;1.08;;
17636;SDS011;8937;51.236;6.794;2022-08-21T09:11:26;1.63;;;1.40;;
17636;SDS011;8937;51.236;6.794;2022-08-21T09:19:55;1.40;;;1.27;;
17636;SDS011;8937;51.236;6.794;2022-08-21T09:28:21;1.50;;;1.17;;
17636;SDS011;8937;51.236;6.794;2022-08-21T09:36:43;1.83;;;1.17;;
17636;SDS011;8937;51.236;6.794;2022-08-21T09:45:09;2.67;;;1.33;;
17636;SDS011;8937;51.236;6.794;2022-08-21T09:53:31;2.42;;;1.40;;
17636;SDS011;8937;51.236;6.794;2022-08-21T10:01:54;0.93;;;0.90;;
17636;SDS011;8937;51.236;6.794;2022-08-21T10:10:17;2.40;;;1.20;;
17636;SDS011;8937;51.236;6.794;2022-08-21T10:18:41;1.30;;;0.93;;
17636;SDS011;8937;51.236;6.794;2022-08-21T10:27:06;2.08;;;1.17;;
17636;SDS011;8937;51.236;6.794;2022-08-21T10:35:33;1.50;;;1.00;;
17636;SDS011;8937;51.236;6.794;2022-08-21T10:43:58;5.65;;;1.35;;
17636;SDS011;8937;51.236;6.794;2022-08-21T10:52:28;2.22;;;1.40;;
17636;SDS011;8937;51.236;6.794;2022-08-21T11:00:53;3.42;;;1.17;;
17636;SDS011;8937;51.236;6.794;2022-08-21T11:09:19;2.35;;;1.30;;
17636;SDS011;8937;51.236;6.794;2022-08-21T11:17:43;4.10;;;1.33;;
17636;SDS011;8937;51.236;6.794;2022-08-21T11:26:08;4.07;;;1.30;;
17636;SDS011;8937;51.236;6.794;2022-08-21T11:34:36;1.55;;;1.00;;
17636;SDS011;8937;51.236;6.794;2022-08-21T11:43:02;1.83;;;1.10;;
17636;SDS011;8937;51.236;6.794;2022-08-21T11:51:32;1.63;;;1.17;;
17636;SDS011;8937;51.236;6.794;2022-08-21T11:59:57;1.40;;;1.05;;
17636;SDS011;8937;51.236;6.794;2022-08-21T12:08:26;1.23;;;1.08;;
17636;SDS011;8937;51.236;6.794;2022-08-21T12:16:50;1.88;;;1.08;;
17636;SDS011;8937;51.236;6.794;2022-08-21T12:25:13;1.92;;;1.20;;
17636;SDS011;8937;51.236;6.794;2022-08-21T12:33:38;1.40;;;1.00;;
17636;SDS011;8937;51.236;6.794;2022-08-21T12:42:03;1.88;;;1.13;;
17636;SDS011;8937;51.236;6.794;2022-08-21T12:50:29;0.70;;;0.70;;
17636;SDS011;8937;51.236;6.794;2022-08-21T12:58:54;0.90;;;0.90;;
17636;SDS011;8937;51.236;6.794;2022-08-21T13:07:19;1.23;;;1.02;;
17636;SDS011;8937;51.236;6.794;2022-08-21T13:15:43;2.05;;;1.13;;
17636;SDS011;8937;51.236;6.794;2022-08-21T13:24:12;1.25;;;0.80;;
17636;SDS011;8937;51.236;6.794;2022-08-21T13:32:35;2.38;;;1.20;;
17636;SDS011;8937;51.236;6.794;2022-08-21T13:41:01;1.85;;;1.08;;
17636;SDS011;8937;51.236;6.794;2022-08-21T13:49:25;1.77;;;1.10;;
17636;SDS011;8937;51.236;6.794;2022-08-21T13:57:51;1.27;;;1.17;;
17636;SDS011;8937;51.236;6.794;2022-08-21T14:06:20;1.75;;;1.33;;
17636;SDS011;8937;51.236;6.794;2022-08-21T14:14:43;0.75;;;0.75;;
17636;SDS011;8937;51.236;6.794;2022-08-21T14:23:05;3.40;;;1.15;;
17636;SDS011;8937;51.236;6.794;2022-08-21T14:31:29;1.05;;;0.95;;
17636;SDS011;8937;51.236;6.794;2022-08-21T14:39:52;1.73;;;1.17;;
17636;SDS011;8937;51.236;6.794;2022-08-21T14:48:15;1.80;;;1.00;;
17636;SDS011;8937;51.236;6.794;2022-08-21T14:56:36;1.92;;;1.00;;
17636;SDS011;8937;51.236;6.794;2022-08-21T15:04:59;1.63;;;0.85;;
17636;SDS011;8937;51.236;6.794;2022-08-21T15:13:21;1.17;;;0.70;;
17636;SDS011;8937;51.236;6.794;2022-08-21T15:21:44;2.08;;;0.80;;
17636;SDS011;8937;51.236;6.794;2022-08-21T15:30:06;1.63;;;0.90;;
17636;SDS011;8937;51.236;6.794;2022-08-21T15:38:29;1.40;;;1.00;;
17636;SDS011;8937;51.236;6.794;2022-08-21T15:46:50;4.90;;;1.10;;
17636;SDS011;8937;51.236;6.794;2022-08-21T15:55:13;0.70;;;0.70;;
17636;SDS011;8937;51.236;6.794;2022-08-21T16:03:35;0.90;;;0.90;;
17636;SDS011;8937;51.236;6.794;2022-08-21T16:11:58;1.38;;;0.90;;
17636;SDS011;8937;51.236;6.794;2022-08-21T16:20:21;1.20;;;1.10;;
17636;SDS011;8937;51.236;6.794;2022-08-21T16:28:45;1.38;;;1.23;;
17636;SDS011;8937;51.236;6.794;2022-08-21T16:37:08;1.55;;;1.13;;
17636;SDS011;8937;51.236;6.794;2022-08-21T16:45:31;1.15;;;1.02;;
17636;SDS011;8937;51.236;6.794;2022-08-21T16:53:53;3.35;;;1.00;;
17636;SDS011;8937;51.236;6.794;2022-08-21T17:02:20;1.80;;;1.70;;
17636;SDS011;8937;51.236;6.794;2022-08-21T17:10:46;6.93;;;1.35;;
17636;SDS011;8937;51.236;6.794;2022-08-21T17:19:09;2.50;;;1.50;;
17636;SDS011;8937;51.236;6.794;2022-08-21T17:27:32;2.88;;;1.52;;
17636;SDS011;8937;51.236;6.794;2022-08-21T17:35:54;1.95;;;1.50;;
17636;SDS011;8937;51.236;6.794;2022-08-21T17:44:17;1.95;;;1.25;;
17636;SDS011;8937;51.236;6.794;2022-08-21T17:52:40;1.75;;;1.30;;
17636;SDS011;8937;51.236;6.794;2022-08-21T18:01:03;1.77;;;1.60;;
17636;SDS011;8937;51.236;6.794;2022-08-21T18:09:26;3.63;;;1.48;;
17636;SDS011;8937;51.236;6.794;2022-08-21T18:17:49;2.08;;;1.85;;
17636;SDS011;8937;51.236;6.794;2022-08-21T18:26:13;6.45;;;1.70;;
17636;SDS011;8937;51.236;6.794;2022-08-21T18:34:36;2.75;;;1.70;;
17636;SDS011;8937;51.236;6.794;2022-08-21T18:43:00;4.68;;;1.88;;
17636;SDS011;8937;51.236;6.794;2022-08-21T18:51:23;2.97;;;1.83;;
17636;SDS011;8937;51.236;6.794;2022-08-21T18:59:47;2.25;;;1.63;;
17636;SDS011;8937;51.236;6.794;2022-08-21T19:08:09;2.00;;;1.88;;
17636;SDS011;8937;51.236;6.794;2022-08-21T19:16:32;2.58;;;1.85;;
17636;SDS011;8937;51.236;6.794;2022-08-21T19:24:53;2.88;;;2.08;;
17636;SDS011;8937;51.236;6.794;2022-08-21T19:33:18;2.25;;;2.05;;
17636;SDS011;8937;51.236;6.794;2022-08-21T19:41:43;2.15;;;1.88;;
17636;SDS011;8937;51.236;6.794;2022-08-21T19:50:07;3.75;;;2.15;;
17636;SDS011;8937;51.236;6.794;2022-08-21T19:58:32;2.58;;;1.90;;
17636;SDS011;8937;51.236;6.794;2022-08-21T20:06:55;1.50;;;1.40;;
17636;SDS011;8937;51.236;6.794;2022-08-21T20:15:18;2.72;;;1.90;;
17636;SDS011;8937;51.236;6.794;2022-08-21T20:23:42;3.38;;;1.75;;
17636;SDS011;8937;51.236;6.794;2022-08-21T20:32:05;2.17;;;1.45;;
17636;SDS011;8937;51.236;6.794;2022-08-21T20:40:28;2.25;;;1.45;;
17636;SDS011;8937;51.236;6.794;2022-08-21T20:48:51;2.58;;;1.55;;
17636;SDS011;8937;51.236;6.794;2022-08-21T20:57:15;1.60;;;1.27;;
17636;SDS011;8937;51.236;6.794;2022-08-21T21:05:39;1.60;;;1.40;;
17636;SDS011;8937;51.236;6.794;2022-08-21T21:14:05;2.95;;;1.92;;
17636;SDS011;8937;51.236;6.794;2022-08-21T21:22:30;4.65;;;2.05;;
17636;SDS011;8937;51.236;6.794;2022-08-21T21:30:53;2.53;;;1.40;;
17636;SDS011;8937;51.236;6.794;2022-08-21T21:39:16;2.63;;;1.55;;
17636;SDS011;8937;51.236;6.794;2022-08-21T21:47:45;4.03;;;1.52;;
17636;SDS011;8937;51.236;6.794;2022-08-21T21:56:12;2.47;;;1.50;;
17636;SDS011;8937;51.236;6.794;2022-08-21T22:04:38;1.30;;;1.17;;
17636;SDS011;8937;51.236;6.794;2022-08-21T22:13:02;4.97;;;1.40;;
17636;SDS011;8937;51.236;6.794;2022-08-21T22:21:29;1.67;;;1.45;;
17636;SDS011;8937;51.236;6.794;2022-08-21T22:29:52;1.40;;;1.30;;
17636;SDS011;8937;51.236;6.794;2022-08-21T22:38:27;2.00;;;1.27;;
17636;SDS011;8937;51.236;6.794;2022-08-21T22:46:50;3.78;;;1.60;;
17636;SDS011;8937;51.236;6.794;2022-08-21T22:55:21;3.00;;;1.67;;
17636;SDS011;8937;51.236;6.794;2022-08-21T23:03:43;4.43;;;1.60;;
17636;SDS011;8937;51.236;6.794;2022-08-21T23:12:23;2.55;;;1.38;;
17636;SDS011;8937;51.236;6.794;2022-08-21T23:20:46;2.05;;;1.30;;
17636;SDS011;8937;51.236;6.794;2022-08-21T23:29:13;5.00;;;2.35;;
17636;SDS011;8937;51.236;6.794;2022-08-21T23:37:40;1.70;;;1.45;;
17636;SDS011;8937;51.236;6.794;2022-08-21T23:46:30;1.75;;;1.23;;
17636;SDS011;8937;51.236;6.794;2022-08-21T23:55:03;1.65;;;1.13;;
